createdAt,value
2018-05-15T00:02:19.322Z,101560.18
2018-05-15T00:04:47.702Z,101563.73
2018-05-15T00:07:16.035Z,101551.68
2018-05-15T00:09:44.809Z,101553.17
2018-05-15T00:12:13.163Z,101551.77
2018-05-15T00:14:41.527Z,101551.77
2018-05-15T00:17:10.603Z,101552.63
2018-05-15T00:19:38.954Z,101551.95
2018-05-15T00:22:07.425Z,101555.37
2018-05-15T00:24:35.802Z,101543.02
2018-05-15T00:27:04.160Z,101554.52
2018-05-15T00:29:32.573Z,101556.60
2018-05-15T00:32:01.421Z,101553.48
2018-05-15T00:34:29.912Z,101561.50
2018-05-15T00:36:58.241Z,101562.30
2018-05-15T00:39:26.896Z,101561.78
2018-05-15T00:41:55.242Z,101566.48
2018-05-15T00:44:24.708Z,101565.87
2018-05-15T00:46:53.167Z,101564.16
2018-05-15T00:49:21.507Z,101565.72
2018-05-15T00:51:50.845Z,101577.52
2018-05-15T00:54:19.600Z,101574.41
2018-05-15T00:56:47.912Z,101571.38
2018-05-15T00:59:16.284Z,101574.86
2018-05-15T01:01:44.630Z,101565.37
2018-05-15T01:04:13.041Z,101573.47
2018-05-15T01:06:41.537Z,101569.99
2018-05-15T01:09:10.104Z,101569.37
2018-05-15T01:11:38.463Z,101565.52
2018-05-15T01:14:06.853Z,101566.22
2018-05-15T01:16:35.234Z,101561.93
2018-05-15T01:19:03.941Z,101563.97
2018-05-15T01:21:32.631Z,101573.08
2018-05-15T01:24:01.083Z,101566.41
2018-05-15T01:26:29.456Z,101562.31
2018-05-15T01:28:57.895Z,101567.95
2018-05-15T01:31:26.554Z,101567.02
2018-05-15T01:33:54.895Z,101571.98
2018-05-15T01:36:23.224Z,101563.18
2018-05-15T01:38:51.956Z,101564.23
2018-05-15T01:41:20.302Z,101567.70
2018-05-15T01:43:48.646Z,101565.44
2018-05-15T01:46:17.249Z,101561.77
2018-05-15T01:48:45.611Z,101558.89
2018-05-15T01:51:13.955Z,101562.27
2018-05-15T01:53:42.364Z,101565.63
2018-05-15T01:56:10.723Z,101559.32
2018-05-15T01:58:39.052Z,101553.47
2018-05-15T02:01:07.702Z,101556.33
2018-05-15T02:03:36.098Z,101558.19
2018-05-15T02:06:04.491Z,101561.70
2018-05-15T02:08:32.851Z,101558.95
2018-05-15T02:11:01.495Z,101554.14
2018-05-15T02:13:29.898Z,101551.27
2018-05-15T02:15:58.685Z,101546.52
2018-05-15T02:18:27.005Z,101548.02
2018-05-15T02:20:55.389Z,101555.36
2018-05-15T02:23:24.210Z,101548.57
2018-05-15T02:25:52.515Z,101554.08
2018-05-15T02:28:20.820Z,101554.08
2018-05-15T02:30:49.482Z,101553.83
2018-05-15T02:33:17.793Z,101557.83
2018-05-15T02:35:46.123Z,101559.89
2018-05-15T02:38:14.486Z,101544.97
2018-05-15T02:40:42.861Z,101547.11
2018-05-15T02:43:11.199Z,101549.61
2018-05-15T02:45:39.599Z,101556.75
2018-05-15T02:48:07.932Z,101560.25
2018-05-15T02:50:36.313Z,101557.48
2018-05-15T02:53:04.772Z,101553.83
2018-05-15T02:55:33.108Z,101546.72
2018-05-15T02:58:01.666Z,101552.63
2018-05-15T03:00:30.043Z,101539.91
2018-05-15T03:02:58.596Z,101548.66
2018-05-15T03:05:26.902Z,101546.03
2018-05-15T03:07:55.266Z,101547.52
2018-05-15T03:10:24.176Z,101551.00
2018-05-15T03:12:52.521Z,101552.83
2018-05-15T03:15:20.893Z,101544.34
2018-05-15T03:17:49.225Z,101549.42
2018-05-15T03:20:17.555Z,101546.80
2018-05-15T03:22:46.216Z,101550.59
2018-05-15T03:25:14.567Z,101550.54
2018-05-15T03:27:42.901Z,101555.33
2018-05-15T03:30:11.522Z,101552.02
2018-05-15T03:32:40.070Z,101550.27
2018-05-15T03:35:08.403Z,101551.16
2018-05-15T03:37:36.960Z,101555.22
2018-05-15T03:40:05.451Z,101549.63
2018-05-15T03:42:33.892Z,101548.02
2018-05-15T03:45:02.585Z,101543.62
2018-05-15T03:47:30.957Z,101552.37
2018-05-15T03:49:59.284Z,101553.11
2018-05-15T03:52:27.655Z,101556.28
2018-05-15T03:54:56.067Z,101553.91
2018-05-15T03:57:24.392Z,101549.41
2018-05-15T03:59:52.760Z,101547.52
2018-05-15T04:02:33.034Z,101544.58
2018-05-15T04:05:13.361Z,101537.58
2018-05-15T04:10:46.878Z,101539.17
2018-05-15T04:13:15.132Z,101537.89
2018-05-15T04:15:43.491Z,101536.34
2018-05-15T04:18:12.022Z,101534.60
2018-05-15T04:20:40.387Z,101536.66
2018-05-15T04:23:08.694Z,101530.38
2018-05-15T04:25:38.086Z,101526.60
2018-05-15T04:28:06.663Z,101530.86
2018-05-15T04:30:35.012Z,101534.23
2018-05-15T04:33:03.837Z,101539.12
2018-05-15T04:35:32.247Z,101532.59
2018-05-15T04:38:00.587Z,101536.88
2018-05-15T04:40:28.949Z,101534.73
2018-05-15T04:42:57.442Z,101534.48
2018-05-15T04:45:25.814Z,101538.83
2018-05-15T04:47:54.582Z,101535.17
2018-05-15T04:50:23.025Z,101536.17
2018-05-15T04:52:51.339Z,101542.17
2018-05-15T04:55:19.690Z,101548.09
2018-05-15T04:57:48.002Z,101540.34
2018-05-15T05:00:16.307Z,101541.38
2018-05-15T05:02:44.669Z,101545.19
2018-05-15T05:05:12.995Z,101539.72
2018-05-15T05:07:41.317Z,101536.02
2018-05-15T05:10:09.670Z,101544.41
2018-05-15T05:12:37.982Z,101537.17
2018-05-15T05:15:06.361Z,101531.05
2018-05-15T05:17:34.957Z,101532.77
2018-05-15T05:20:03.409Z,101537.47
2018-05-15T05:22:31.782Z,101542.90
2018-05-15T05:25:00.210Z,101553.16
2018-05-15T05:27:28.549Z,101552.75
2018-05-15T05:29:57.041Z,101560.02
2018-05-15T05:32:25.606Z,101559.88
2018-05-15T05:34:53.967Z,101568.83
2018-05-15T05:37:23.185Z,101562.33
2018-05-15T05:39:51.708Z,101561.11
2018-05-15T05:42:20.086Z,101562.27
2018-05-15T05:44:48.403Z,101560.98
2018-05-15T05:47:17.069Z,101556.76
2018-05-15T05:49:45.387Z,101561.92
2018-05-15T05:52:13.745Z,101555.59
2018-05-15T05:54:42.454Z,101565.27
2018-05-15T05:57:10.808Z,101557.58
2018-05-15T05:59:39.151Z,101563.30
2018-05-15T06:02:07.669Z,101564.44
2018-05-15T06:04:39.713Z,101577.06
2018-05-15T06:07:08.062Z,101570.89
2018-05-15T06:09:36.489Z,101586.58
2018-05-15T06:12:04.939Z,101582.22
2018-05-15T06:14:33.293Z,101577.89
2018-05-15T06:17:01.657Z,101576.08
2018-05-15T06:19:30.034Z,101575.77
2018-05-15T06:21:58.425Z,101577.77
2018-05-15T06:24:26.765Z,101575.80
2018-05-15T06:26:55.112Z,101569.25
2018-05-15T06:29:23.445Z,101572.94
2018-05-15T06:31:52.033Z,101566.20
2018-05-15T06:34:20.354Z,101568.30
2018-05-15T06:36:49.134Z,101572.11
2018-05-15T06:39:17.599Z,101571.73
2018-05-15T06:41:45.951Z,101571.42
2018-05-15T06:44:14.510Z,101568.89
2018-05-15T06:46:42.831Z,101570.55
2018-05-15T06:49:11.168Z,101564.27
2018-05-15T06:51:39.542Z,101570.35
2018-05-15T06:54:07.865Z,101566.18
2018-05-15T06:56:36.230Z,101559.51
2018-05-15T06:59:04.768Z,101553.28
2018-05-15T07:01:33.099Z,101558.76
2018-05-15T07:04:01.472Z,101566.44
2018-05-15T07:09:05.384Z,101566.64
2018-05-15T07:11:33.909Z,101564.66
2018-05-15T07:14:02.335Z,101569.55
2018-05-15T07:16:30.621Z,101569.30
2018-05-15T07:18:59.215Z,101574.20
2018-05-15T07:21:27.555Z,101578.56
2018-05-15T07:23:55.877Z,101567.52
2018-05-15T07:26:24.441Z,101572.49
2018-05-15T07:28:52.761Z,101571.52
2018-05-15T07:31:21.100Z,101577.17
2018-05-15T07:33:49.454Z,101584.34
2018-05-15T07:36:17.820Z,101574.62
2018-05-15T07:38:46.118Z,101580.06
2018-05-15T07:41:14.704Z,101576.29
2018-05-15T07:43:43.022Z,101580.67
2018-05-15T07:46:11.381Z,101578.58
2018-05-15T07:48:40.003Z,101575.45
2018-05-15T07:51:08.451Z,101581.70
2018-05-15T07:53:36.818Z,101581.97
2018-05-15T07:56:05.349Z,101587.48
2018-05-15T07:58:34.568Z,101582.80
2018-05-15T08:01:02.918Z,101580.62
2018-05-15T08:03:31.277Z,101586.55
2018-05-15T08:05:59.640Z,101588.61
2018-05-15T08:08:28.014Z,101589.32
2018-05-15T08:10:56.534Z,101596.50
2018-05-15T08:13:25.594Z,101588.78
2018-05-15T08:15:53.927Z,101581.95
2018-05-15T08:18:22.522Z,101583.14
2018-05-15T08:20:50.857Z,101586.09
2018-05-15T08:23:19.180Z,101590.05
2018-05-15T08:25:47.809Z,101595.23
2018-05-15T08:28:16.194Z,101588.94
2018-05-15T08:30:44.575Z,101593.04
2018-05-15T08:33:12.849Z,101590.02
2018-05-15T08:35:41.271Z,101590.87
2018-05-15T08:38:09.604Z,101593.00
2018-05-15T08:40:38.168Z,101596.72
2018-05-15T08:43:06.612Z,101594.12
2018-05-15T08:45:34.977Z,101596.77
2018-05-15T08:48:03.400Z,101594.34
2018-05-15T08:50:31.805Z,101591.98
2018-05-15T08:53:01.334Z,101595.28
2018-05-15T08:55:29.702Z,101594.97
2018-05-15T08:57:58.056Z,101591.55
2018-05-15T09:00:26.409Z,101591.04
2018-05-15T09:02:54.757Z,101589.80
2018-05-15T09:05:23.091Z,101591.45
2018-05-15T09:07:51.409Z,101590.23
2018-05-15T09:10:19.970Z,101599.28
2018-05-15T09:12:48.317Z,101600.70
2018-05-15T09:15:16.639Z,101597.36
2018-05-15T09:17:44.982Z,101592.52
2018-05-15T09:20:13.347Z,101586.60
2018-05-15T09:22:41.684Z,101591.41
2018-05-15T09:25:10.022Z,101593.71
2018-05-15T09:27:38.345Z,101587.72
2018-05-15T09:30:06.671Z,101585.95
2018-05-15T09:32:35.050Z,101585.50
2018-05-15T09:35:03.346Z,101582.02
2018-05-15T09:37:31.719Z,101584.08
2018-05-15T09:40:00.154Z,101585.38
2018-05-15T09:42:28.488Z,101592.43
2018-05-15T09:44:56.894Z,101591.00
2018-05-15T09:47:25.643Z,101586.34
2018-05-15T09:49:54.015Z,101589.63
2018-05-15T09:52:22.355Z,101580.56
2018-05-15T09:54:50.669Z,101584.89
2018-05-15T09:57:18.989Z,101587.13
2018-05-15T09:59:47.305Z,101586.35
2018-05-15T10:02:15.677Z,101596.02
2018-05-15T10:04:44.033Z,101593.77
2018-05-15T10:07:12.399Z,101584.81
2018-05-15T10:09:40.746Z,101587.48
2018-05-15T10:12:09.179Z,101577.69
2018-05-15T10:14:37.555Z,101581.26
2018-05-15T10:17:06.185Z,101585.55
2018-05-15T10:19:34.545Z,101582.27
2018-05-15T10:22:02.900Z,101587.59
2018-05-15T10:24:31.265Z,101583.61
2018-05-15T10:26:59.805Z,101581.28
2018-05-15T10:29:28.179Z,101577.72
2018-05-15T10:31:56.545Z,101569.33
2018-05-15T10:34:24.845Z,101572.56
2018-05-15T10:36:53.185Z,101571.29
2018-05-15T10:39:21.905Z,101581.19
2018-05-15T10:41:50.263Z,101563.51
2018-05-15T10:44:18.564Z,101564.41
2018-05-15T10:46:46.916Z,101558.06
2018-05-15T10:49:16.150Z,101561.17
2018-05-15T10:51:44.494Z,101566.03
2018-05-15T10:54:12.894Z,101562.09
2018-05-15T10:56:41.169Z,101565.73
2018-05-15T10:59:09.558Z,101563.62
2018-05-15T11:01:37.940Z,101566.02
2018-05-15T11:04:06.291Z,101557.89
2018-05-15T11:06:34.642Z,101558.25
2018-05-15T11:09:03.018Z,101553.55
2018-05-15T11:11:31.456Z,101560.20
2018-05-15T11:13:59.872Z,101553.05
2018-05-15T11:16:28.440Z,101558.23
2018-05-15T11:18:56.769Z,101561.13
2018-05-15T11:21:36.950Z,101555.97
2018-05-15T11:27:10.171Z,101551.02
2018-05-15T11:29:38.586Z,101549.82
2018-05-15T11:32:06.949Z,101551.50
2018-05-15T11:34:35.451Z,101546.28
2018-05-15T11:37:03.781Z,101539.19
2018-05-15T11:39:32.187Z,101540.08
2018-05-15T11:42:00.740Z,101540.80
2018-05-15T11:44:29.117Z,101542.67
2018-05-15T11:46:57.434Z,101539.25
2018-05-15T11:49:26.704Z,101541.05
2018-05-15T11:51:55.183Z,101535.52
2018-05-15T11:54:22.468Z,101534.64
2018-05-15T11:56:50.852Z,101544.05
2018-05-15T11:59:19.161Z,101531.22
2018-05-15T12:01:47.464Z,101527.98
2018-05-15T12:04:16.436Z,101526.56
2018-05-15T12:06:44.732Z,101528.50
2018-05-15T12:09:13.099Z,101523.77
2018-05-15T12:11:41.480Z,101524.55
2018-05-15T12:14:09.835Z,101521.98
2018-05-15T12:16:38.158Z,101521.34
2018-05-15T12:19:06.810Z,101522.48
2018-05-15T12:21:35.122Z,101522.13
2018-05-15T12:24:03.494Z,101527.88
2018-05-15T12:26:31.879Z,101529.98
2018-05-15T12:29:00.225Z,101534.84
2018-05-15T12:31:29.351Z,101525.24
2018-05-15T12:33:57.706Z,101529.36
2018-05-15T12:36:26.023Z,101524.91
2018-05-15T12:38:54.365Z,101520.42
2018-05-15T12:41:22.832Z,101520.80
2018-05-15T12:43:51.088Z,101519.34
2018-05-15T12:46:19.396Z,101513.28
2018-05-15T12:48:47.877Z,101510.64
2018-05-15T12:51:16.110Z,101508.99
2018-05-15T12:53:44.431Z,101498.49
2018-05-15T12:56:12.976Z,101499.59
2018-05-15T12:58:41.291Z,101494.46
2018-05-15T13:01:09.676Z,101502.53
2018-05-15T13:03:38.210Z,101503.73
2018-05-15T13:06:06.553Z,101501.14
2018-05-15T13:08:34.941Z,101498.16
2018-05-15T13:11:03.709Z,101487.60
2018-05-15T13:13:32.113Z,101490.64
2018-05-15T13:16:00.548Z,101488.27
2018-05-15T13:18:29.228Z,101487.13
2018-05-15T13:20:57.519Z,101492.42
2018-05-15T13:23:25.842Z,101486.86
2018-05-15T13:25:55.821Z,101482.55
2018-05-15T13:28:24.121Z,101476.73
2018-05-15T13:30:52.471Z,101482.22
2018-05-15T13:33:20.826Z,101479.31
2018-05-15T13:35:49.149Z,101483.75
2018-05-15T13:38:17.439Z,101482.17
2018-05-15T13:40:45.786Z,101483.25
2018-05-15T13:43:14.094Z,101480.95
2018-05-15T13:45:42.439Z,101478.82
2018-05-15T13:48:10.820Z,101473.19
2018-05-15T13:50:39.231Z,101474.63
2018-05-15T13:53:07.618Z,101467.53
2018-05-15T13:55:36.009Z,101469.84
2018-05-15T13:58:04.382Z,101463.89
2018-05-15T14:00:32.798Z,101454.62
2018-05-15T14:03:01.541Z,101457.23
2018-05-15T14:05:29.887Z,101451.12
2018-05-15T14:07:58.204Z,101448.93
2018-05-15T14:10:26.795Z,101447.14
2018-05-15T14:12:55.121Z,101448.98
2018-05-15T14:15:23.435Z,101450.54
2018-05-15T14:17:52.107Z,101445.59
2018-05-15T14:20:20.418Z,101442.08
2018-05-15T14:22:48.772Z,101442.52
2018-05-15T14:25:17.148Z,101438.02
2018-05-15T14:27:45.469Z,101433.59
2018-05-15T14:30:13.811Z,101431.99
2018-05-15T14:32:42.445Z,101424.73
2018-05-15T14:35:10.878Z,101423.83
2018-05-15T14:37:39.311Z,101422.84
2018-05-15T14:40:07.741Z,101424.36
2018-05-15T14:42:47.722Z,101423.56
2018-05-15T14:45:16.268Z,101431.76
2018-05-15T14:47:44.587Z,101432.61
2018-05-15T14:50:12.909Z,101430.08
2018-05-15T14:52:41.651Z,101436.19
2018-05-15T14:55:10.049Z,101428.06
2018-05-15T14:57:38.448Z,101429.28
2018-05-15T15:00:06.842Z,101425.42
2018-05-15T15:02:35.164Z,101418.94
2018-05-15T15:05:03.508Z,101414.52
2018-05-15T15:07:32.148Z,101414.97
2018-05-15T15:10:00.528Z,101411.84
2018-05-15T15:12:28.839Z,101414.98
2018-05-15T15:14:57.516Z,101409.56
2018-05-15T15:17:25.843Z,101402.63
2018-05-15T15:19:54.143Z,101402.67
2018-05-15T15:22:22.662Z,101409.81
2018-05-15T15:24:50.987Z,101412.47
2018-05-15T15:27:19.318Z,101408.23
2018-05-15T15:29:47.690Z,101409.05
2018-05-15T15:32:15.991Z,101408.77
2018-05-15T15:34:44.328Z,101396.03
2018-05-15T15:37:12.830Z,101409.78
2018-05-15T15:39:41.216Z,101395.22
2018-05-15T15:42:09.684Z,101396.98
2018-05-15T15:44:38.015Z,101389.71
2018-05-15T15:47:06.380Z,101395.16
2018-05-15T15:49:34.697Z,101380.07
2018-05-15T15:52:03.086Z,101379.95
2018-05-15T15:54:31.576Z,101376.70
2018-05-15T15:57:00.084Z,101374.30
2018-05-15T15:59:28.703Z,101371.11
2018-05-15T16:01:57.012Z,101368.85
2018-05-15T16:04:25.327Z,101372.78
2018-05-15T16:06:53.681Z,101364.02
2018-05-15T16:09:22.005Z,101370.58
2018-05-15T16:11:50.337Z,101367.59
2018-05-15T16:14:18.899Z,101368.28
2018-05-15T16:16:47.270Z,101360.71
2018-05-15T16:19:15.764Z,101368.47
2018-05-15T16:21:45.102Z,101364.86
2018-05-15T16:24:13.572Z,101362.05
2018-05-15T16:26:42.104Z,101355.33
2018-05-15T16:29:10.729Z,101357.52
2018-05-15T16:31:39.067Z,101347.34
2018-05-15T16:34:07.569Z,101349.11
2018-05-15T16:36:35.994Z,101347.80
2018-05-15T16:39:04.865Z,101349.98
2018-05-15T16:41:33.204Z,101338.77
2018-05-15T16:44:01.818Z,101345.80
2018-05-15T16:46:30.164Z,101343.66
2018-05-15T16:48:58.538Z,101340.93
2018-05-15T16:51:27.241Z,101336.94
2018-05-15T16:53:55.559Z,101331.83
2018-05-15T16:56:23.915Z,101335.05
2018-05-15T16:58:52.563Z,101333.45
2018-05-15T17:01:20.813Z,101326.05
2018-05-15T17:03:49.192Z,101325.98
2018-05-15T17:06:18.007Z,101321.63
2018-05-15T17:08:46.418Z,101323.23
2018-05-15T17:11:14.787Z,101321.01
2018-05-15T17:13:43.189Z,101311.04
2018-05-15T17:16:11.597Z,101319.52
2018-05-15T17:18:42.306Z,101319.03
2018-05-15T17:21:10.766Z,101317.55
2018-05-15T17:23:39.146Z,101316.71
2018-05-15T17:26:07.528Z,101323.42
2018-05-15T17:28:36.281Z,101322.80
2018-05-15T17:31:04.814Z,101312.95
2018-05-15T17:33:33.341Z,101311.39
2018-05-15T17:36:02.128Z,101310.94
2018-05-15T17:38:30.605Z,101310.20
2018-05-15T17:40:59.027Z,101304.37
2018-05-15T17:43:27.812Z,101305.90
2018-05-15T17:45:56.133Z,101307.84
2018-05-15T17:48:24.454Z,101306.45
2018-05-15T17:50:52.804Z,101311.95
2018-05-15T17:53:21.103Z,101308.20
2018-05-15T17:55:49.444Z,101309.64
2018-05-15T17:58:17.783Z,101303.44
2018-05-15T18:00:46.113Z,101296.55
2018-05-15T18:03:14.499Z,101294.80
2018-05-15T18:05:42.846Z,101299.16
2018-05-15T18:08:11.150Z,101304.98
2018-05-15T18:10:39.546Z,101296.52
2018-05-15T18:13:08.158Z,101300.30
2018-05-15T18:15:36.799Z,101301.48
2018-05-15T18:18:05.282Z,101301.91
2018-05-15T18:20:34.069Z,101305.20
2018-05-15T18:23:02.405Z,101296.63
2018-05-15T18:25:30.966Z,101295.95
2018-05-15T18:27:59.977Z,101292.95
2018-05-15T18:30:28.336Z,101287.63
2018-05-15T18:32:56.781Z,101288.49
2018-05-15T18:35:24.982Z,101292.16
2018-05-15T18:37:53.362Z,101292.50
2018-05-15T18:40:21.694Z,101297.19
2018-05-15T18:42:50.065Z,101296.50
2018-05-15T18:45:18.416Z,101291.40
2018-05-15T18:47:46.748Z,101301.02
2018-05-15T18:50:15.428Z,101300.58
2018-05-15T18:52:43.908Z,101301.11
2018-05-15T18:55:12.253Z,101309.43
2018-05-15T18:57:40.723Z,101315.42
2018-05-15T19:00:09.077Z,101318.03
2018-05-15T19:02:37.616Z,101304.39
2018-05-15T19:05:06.134Z,101310.16
2018-05-15T19:07:34.613Z,101318.19
2018-05-15T19:10:03.011Z,101324.52
2018-05-15T19:12:31.474Z,101319.89
2018-05-15T19:14:59.881Z,101330.18
2018-05-15T19:17:28.561Z,101331.03
2018-05-15T19:19:57.154Z,101331.26
2018-05-15T19:22:25.525Z,101334.41
2018-05-15T19:24:53.875Z,101328.64
2018-05-15T19:27:22.432Z,101330.90
2018-05-15T19:29:50.773Z,101329.23
2018-05-15T19:32:19.090Z,101336.62
2018-05-15T19:34:53.228Z,101340.66
2018-05-15T19:37:21.638Z,101340.62
2018-05-15T19:39:49.984Z,101338.08
2018-05-15T19:42:18.340Z,101337.84
2018-05-15T19:44:46.646Z,101337.55
2018-05-15T19:47:14.945Z,101338.14
2018-05-15T19:49:43.299Z,101340.12
2018-05-15T19:52:11.619Z,101332.80
2018-05-15T19:54:39.943Z,101335.38
2018-05-15T19:57:08.327Z,101342.08
2018-05-15T19:59:36.885Z,101347.03
2018-05-15T20:02:05.218Z,101342.86
2018-05-15T20:04:33.995Z,101349.63
2018-05-15T20:07:02.432Z,101346.56
2018-05-15T20:09:30.948Z,101348.76
2018-05-15T20:11:59.532Z,101355.97
2018-05-15T20:14:27.912Z,101347.80
2018-05-15T20:16:56.285Z,101354.72
2018-05-15T20:19:24.906Z,101357.22
2018-05-15T20:21:53.233Z,101361.66
2018-05-15T20:24:21.943Z,101359.48
2018-05-15T20:26:50.324Z,101359.05
2018-05-15T20:29:18.744Z,101362.76
2018-05-15T20:31:47.685Z,101367.38
2018-05-15T20:34:16.049Z,101365.02
2018-05-15T20:36:44.421Z,101377.78
2018-05-15T20:39:12.764Z,101384.27
2018-05-15T20:41:41.181Z,101385.41
2018-05-15T20:44:09.501Z,101382.07
2018-05-15T20:46:38.262Z,101386.18
2018-05-15T20:49:06.862Z,101381.29
2018-05-15T20:51:35.386Z,101382.79
2018-05-15T20:54:03.831Z,101382.19
2018-05-15T20:56:32.790Z,101387.16
2018-05-15T20:59:01.229Z,101382.48
2018-05-15T21:01:30.546Z,101386.69
2018-05-15T21:03:58.972Z,101387.73
2018-05-15T21:06:27.404Z,101383.73
2018-05-15T21:08:55.743Z,101384.57
2018-05-15T21:11:24.129Z,101386.94
2018-05-15T21:13:52.503Z,101379.45
2018-05-15T21:16:20.882Z,101389.69
2018-05-15T21:18:49.301Z,101385.11
2018-05-15T21:21:17.716Z,101383.69
2018-05-15T21:23:46.139Z,101385.53
2018-05-15T21:26:14.985Z,101379.84
2018-05-15T21:28:43.414Z,101377.44
2018-05-15T21:31:11.741Z,101383.51
2018-05-15T21:33:40.215Z,101380.76
2018-05-15T21:36:08.594Z,101382.82
2018-05-15T21:38:37.114Z,101380.42
2018-05-15T21:41:05.465Z,101381.88
2018-05-15T21:43:34.917Z,101382.09
2018-05-15T21:46:03.370Z,101375.23
2018-05-15T21:48:32.246Z,101374.53
2018-05-15T21:51:00.669Z,101362.29
2018-05-15T21:53:29.104Z,101360.53
2018-05-15T21:55:57.499Z,101374.06
2018-05-15T21:58:25.829Z,101376.03
2018-05-15T22:00:54.226Z,101381.30
2018-05-15T22:03:22.711Z,101371.32
2018-05-15T22:05:51.027Z,101366.63
2018-05-15T22:08:19.502Z,101365.06
2018-05-15T22:10:48.190Z,101360.52
2018-05-15T22:13:28.557Z,101358.00
2018-05-15T22:16:08.999Z,101350.52
2018-05-15T22:18:49.233Z,101356.08
2018-05-15T22:21:29.412Z,101359.70
2018-05-15T22:23:57.208Z,101363.30
2018-05-15T22:26:25.532Z,101364.05
2018-05-15T22:28:53.853Z,101361.75
2018-05-15T22:31:22.326Z,101352.09
2018-05-15T22:33:50.699Z,101354.33
2018-05-15T22:36:19.043Z,101350.14
2018-05-15T22:38:47.401Z,101345.77
2018-05-15T22:41:15.733Z,101348.09
2018-05-15T22:43:44.734Z,101348.67
2018-05-15T22:46:13.381Z,101353.27
2018-05-15T22:48:41.730Z,101351.52
2018-05-15T22:51:10.464Z,101352.17
2018-05-15T22:53:38.879Z,101353.62
2018-05-15T22:56:07.281Z,101355.15
2018-05-15T22:58:35.921Z,101351.95
2018-05-15T23:01:04.262Z,101353.00
2018-05-15T23:03:32.787Z,101353.14
2018-05-15T23:06:01.200Z,101365.05
2018-05-15T23:08:29.640Z,101358.23
2018-05-15T23:10:57.963Z,101362.88
2018-05-15T23:13:26.904Z,101362.83
2018-05-15T23:15:55.201Z,101354.84
2018-05-15T23:18:23.559Z,101360.34
2018-05-15T23:20:52.743Z,101364.77
2018-05-15T23:23:21.040Z,101358.70
2018-05-15T23:25:49.401Z,101357.45
2018-05-15T23:28:17.789Z,101349.72
2018-05-15T23:30:46.122Z,101351.19
2018-05-15T23:33:14.569Z,101350.30
2018-05-15T23:35:44.570Z,101353.55
2018-05-15T23:38:12.997Z,101351.91
2018-05-15T23:40:41.324Z,101344.41
2018-05-15T23:43:11.124Z,101345.41
2018-05-15T23:45:39.499Z,101341.55
2018-05-15T23:48:07.797Z,101337.44
2018-05-15T23:50:36.794Z,101331.64
2018-05-15T23:53:05.148Z,101336.13
2018-05-15T23:55:33.573Z,101339.39
2018-05-15T23:58:02.213Z,101350.45
